sensor_id;sensor_type;location;lat;lon;timestamp;P1;durP1;ratioP1;P2;durP2;ratioP2
14736;SDS011;7459;53.590;10.062;2023-02-18T00:01:22;18.27;;;1.83;;
14736;SDS011;7459;53.590;10.062;2023-02-18T00:03:49;18.42;;;2.13;;
14736;SDS011;7459;53.590;10.062;2023-02-18T00:08:44;22.42;;;3.50;;
14736;SDS011;7459;53.590;10.062;2023-02-18T00:11:11;12.57;;;1.83;;
14736;SDS011;7459;53.590;10.062;2023-02-18T00:13:37;11.85;;;1.52;;
14736;SDS011;7459;53.590;10.062;2023-02-18T00:16:04;18.85;;;1.98;;
14736;SDS011;7459;53.590;10.062;2023-02-18T00:18:35;15.88;;;2.08;;
14736;SDS011;7459;53.590;10.062;2023-02-18T00:21:05;15.05;;;1.65;;
14736;SDS011;7459;53.590;10.062;2023-02-18T00:23:32;13.52;;;1.50;;
14736;SDS011;7459;53.590;10.062;2023-02-18T00:25:59;10.27;;;1.80;;
14736;SDS011;7459;53.590;10.062;2023-02-18T00:28:30;20.02;;;2.00;;
14736;SDS011;7459;53.590;10.062;2023-02-18T00:30:56;12.02;;;1.65;;
14736;SDS011;7459;53.590;10.062;2023-02-18T00:33:22;18.13;;;2.30;;
14736;SDS011;7459;53.590;10.062;2023-02-18T00:35:48;12.38;;;1.77;;
14736;SDS011;7459;53.590;10.062;2023-02-18T00:38:13;14.15;;;1.80;;
14736;SDS011;7459;53.590;10.062;2023-02-18T00:40:39;13.03;;;1.77;;
14736;SDS011;7459;53.590;10.062;2023-02-18T00:43:06;18.38;;;2.17;;
14736;SDS011;7459;53.590;10.062;2023-02-18T00:45:32;14.35;;;2.38;;
14736;SDS011;7459;53.590;10.062;2023-02-18T00:47:58;12.80;;;1.40;;
14736;SDS011;7459;53.590;10.062;2023-02-18T00:50:23;18.92;;;1.88;;
14736;SDS011;7459;53.590;10.062;2023-02-18T00:52:49;11.40;;;1.50;;
14736;SDS011;7459;53.590;10.062;2023-02-18T00:55:15;18.88;;;1.92;;
14736;SDS011;7459;53.590;10.062;2023-02-18T00:57:40;11.00;;;1.90;;
14736;SDS011;7459;53.590;10.062;2023-02-18T01:00:06;10.93;;;1.30;;
14736;SDS011;7459;53.590;10.062;2023-02-18T01:02:33;13.88;;;1.80;;
14736;SDS011;7459;53.590;10.062;2023-02-18T01:04:59;17.53;;;2.43;;
14736;SDS011;7459;53.590;10.062;2023-02-18T01:07:25;21.67;;;2.35;;
14736;SDS011;7459;53.590;10.062;2023-02-18T01:09:51;13.85;;;1.73;;
14736;SDS011;7459;53.590;10.062;2023-02-18T01:12:17;19.30;;;2.07;;
14736;SDS011;7459;53.590;10.062;2023-02-18T01:14:43;14.15;;;2.03;;
14736;SDS011;7459;53.590;10.062;2023-02-18T01:17:09;17.80;;;2.80;;
14736;SDS011;7459;53.590;10.062;2023-02-18T01:19:35;14.35;;;1.92;;
14736;SDS011;7459;53.590;10.062;2023-02-18T01:22:01;9.65;;;1.40;;
14736;SDS011;7459;53.590;10.062;2023-02-18T01:24:27;12.27;;;1.50;;
14736;SDS011;7459;53.590;10.062;2023-02-18T01:26:52;16.53;;;2.03;;
14736;SDS011;7459;53.590;10.062;2023-02-18T01:29:18;18.87;;;2.00;;
14736;SDS011;7459;53.590;10.062;2023-02-18T01:31:44;21.80;;;2.33;;
14736;SDS011;7459;53.590;10.062;2023-02-18T01:34:09;13.47;;;2.33;;
14736;SDS011;7459;53.590;10.062;2023-02-18T01:36:35;15.02;;;2.28;;
14736;SDS011;7459;53.590;10.062;2023-02-18T01:39:01;19.20;;;2.27;;
14736;SDS011;7459;53.590;10.062;2023-02-18T01:41:26;11.30;;;2.20;;
14736;SDS011;7459;53.590;10.062;2023-02-18T01:46:37;19.10;;;1.67;;
14736;SDS011;7459;53.590;10.062;2023-02-18T01:49:03;17.13;;;1.70;;
14736;SDS011;7459;53.590;10.062;2023-02-18T01:51:31;12.80;;;1.70;;
14736;SDS011;7459;53.590;10.062;2023-02-18T01:57:23;11.43;;;1.30;;
14736;SDS011;7459;53.590;10.062;2023-02-18T01:59:55;12.70;;;1.70;;
14736;SDS011;7459;53.590;10.062;2023-02-18T02:02:39;16.50;;;2.42;;
14736;SDS011;7459;53.590;10.062;2023-02-18T02:05:09;14.00;;;2.08;;
14736;SDS011;7459;53.590;10.062;2023-02-18T02:07:34;16.60;;;2.28;;
14736;SDS011;7459;53.590;10.062;2023-02-18T02:10:00;12.60;;;1.80;;
14736;SDS011;7459;53.590;10.062;2023-02-18T02:15:27;15.13;;;1.40;;
14736;SDS011;7459;53.590;10.062;2023-02-18T02:18:33;12.05;;;1.42;;
14736;SDS011;7459;53.590;10.062;2023-02-18T02:24:18;15.45;;;1.60;;
14736;SDS011;7459;53.590;10.062;2023-02-18T02:27:08;15.15;;;1.20;;
14736;SDS011;7459;53.590;10.062;2023-02-18T02:30:00;12.98;;;2.30;;
14736;SDS011;7459;53.590;10.062;2023-02-18T02:32:59;9.90;;;1.67;;
14736;SDS011;7459;53.590;10.062;2023-02-18T02:36:02;12.10;;;1.70;;
14736;SDS011;7459;53.590;10.062;2023-02-18T02:38:55;9.93;;;1.50;;
14736;SDS011;7459;53.590;10.062;2023-02-18T02:41:45;10.60;;;1.30;;
14736;SDS011;7459;53.590;10.062;2023-02-18T02:44:40;13.93;;;1.38;;
14736;SDS011;7459;53.590;10.062;2023-02-18T02:50:13;12.25;;;1.80;;
14736;SDS011;7459;53.590;10.062;2023-02-18T02:52:56;12.65;;;1.92;;
14736;SDS011;7459;53.590;10.062;2023-02-18T02:55:27;11.10;;;1.10;;
14736;SDS011;7459;53.590;10.062;2023-02-18T02:57:53;12.17;;;1.67;;
14736;SDS011;7459;53.590;10.062;2023-02-18T03:00:22;10.68;;;0.90;;
14736;SDS011;7459;53.590;10.062;2023-02-18T03:03:10;15.20;;;1.50;;
14736;SDS011;7459;53.590;10.062;2023-02-18T03:09:08;13.85;;;1.20;;
14736;SDS011;7459;53.590;10.062;2023-02-18T03:11:41;10.00;;;1.15;;
14736;SDS011;7459;53.590;10.062;2023-02-18T03:14:22;10.57;;;1.42;;
14736;SDS011;7459;53.590;10.062;2023-02-18T03:17:15;17.13;;;2.33;;
14736;SDS011;7459;53.590;10.062;2023-02-18T03:20:12;19.10;;;1.48;;
14736;SDS011;7459;53.590;10.062;2023-02-18T03:22:50;11.27;;;1.70;;
14736;SDS011;7459;53.590;10.062;2023-02-18T03:25:17;12.85;;;2.10;;
14736;SDS011;7459;53.590;10.062;2023-02-18T03:27:49;14.75;;;2.25;;
14736;SDS011;7459;53.590;10.062;2023-02-18T03:33:06;8.95;;;1.20;;
14736;SDS011;7459;53.590;10.062;2023-02-18T03:35:36;8.10;;;1.23;;
14736;SDS011;7459;53.590;10.062;2023-02-18T03:38:08;16.00;;;1.83;;
14736;SDS011;7459;53.590;10.062;2023-02-18T03:40:48;8.35;;;0.77;;
14736;SDS011;7459;53.590;10.062;2023-02-18T03:43:14;13.00;;;1.50;;
14736;SDS011;7459;53.590;10.062;2023-02-18T03:45:40;12.43;;;1.60;;
14736;SDS011;7459;53.590;10.062;2023-02-18T03:48:06;8.55;;;0.85;;
14736;SDS011;7459;53.590;10.062;2023-02-18T03:50:32;9.85;;;1.30;;
14736;SDS011;7459;53.590;10.062;2023-02-18T03:52:58;12.77;;;1.40;;
14736;SDS011;7459;53.590;10.062;2023-02-18T03:55:24;10.18;;;1.45;;
14736;SDS011;7459;53.590;10.062;2023-02-18T03:57:49;9.23;;;1.17;;
14736;SDS011;7459;53.590;10.062;2023-02-18T04:00:16;12.57;;;1.65;;
14736;SDS011;7459;53.590;10.062;2023-02-18T04:02:42;11.00;;;0.97;;
14736;SDS011;7459;53.590;10.062;2023-02-18T04:05:07;7.53;;;0.80;;
14736;SDS011;7459;53.590;10.062;2023-02-18T04:07:33;10.38;;;1.38;;
14736;SDS011;7459;53.590;10.062;2023-02-18T04:10:00;8.20;;;1.15;;
14736;SDS011;7459;53.590;10.062;2023-02-18T04:12:25;8.45;;;1.20;;
14736;SDS011;7459;53.590;10.062;2023-02-18T04:14:51;12.57;;;1.42;;
14736;SDS011;7459;53.590;10.062;2023-02-18T04:17:17;7.57;;;1.25;;
14736;SDS011;7459;53.590;10.062;2023-02-18T04:19:43;5.85;;;1.00;;
14736;SDS011;7459;53.590;10.062;2023-02-18T04:22:09;4.40;;;0.57;;
14736;SDS011;7459;53.590;10.062;2023-02-18T04:24:35;6.10;;;1.17;;
14736;SDS011;7459;53.590;10.062;2023-02-18T04:27:01;7.87;;;1.03;;
14736;SDS011;7459;53.590;10.062;2023-02-18T04:29:26;10.85;;;1.00;;
14736;SDS011;7459;53.590;10.062;2023-02-18T04:31:52;11.97;;;1.40;;
14736;SDS011;7459;53.590;10.062;2023-02-18T04:34:18;11.40;;;1.17;;
14736;SDS011;7459;53.590;10.062;2023-02-18T04:36:44;9.35;;;1.10;;
14736;SDS011;7459;53.590;10.062;2023-02-18T04:39:10;7.30;;;1.00;;
14736;SDS011;7459;53.590;10.062;2023-02-18T04:41:35;7.85;;;1.35;;
14736;SDS011;7459;53.590;10.062;2023-02-18T04:44:01;6.77;;;0.97;;
14736;SDS011;7459;53.590;10.062;2023-02-18T04:46:27;9.98;;;1.35;;
14736;SDS011;7459;53.590;10.062;2023-02-18T04:48:53;7.60;;;0.68;;
14736;SDS011;7459;53.590;10.062;2023-02-18T04:51:19;8.63;;;1.15;;
14736;SDS011;7459;53.590;10.062;2023-02-18T04:53:45;7.80;;;0.90;;
14736;SDS011;7459;53.590;10.062;2023-02-18T04:56:10;9.60;;;1.33;;
14736;SDS011;7459;53.590;10.062;2023-02-18T04:58:36;8.63;;;1.05;;
14736;SDS011;7459;53.590;10.062;2023-02-18T05:01:03;10.97;;;1.70;;
14736;SDS011;7459;53.590;10.062;2023-02-18T05:03:29;7.07;;;0.63;;
14736;SDS011;7459;53.590;10.062;2023-02-18T05:05:55;6.75;;;0.90;;
14736;SDS011;7459;53.590;10.062;2023-02-18T05:08:21;8.05;;;1.35;;
14736;SDS011;7459;53.590;10.062;2023-02-18T05:10:47;7.43;;;1.27;;
14736;SDS011;7459;53.590;10.062;2023-02-18T05:13:13;10.63;;;0.90;;
14736;SDS011;7459;53.590;10.062;2023-02-18T05:15:39;8.02;;;1.10;;
14736;SDS011;7459;53.590;10.062;2023-02-18T05:18:05;7.50;;;1.42;;
14736;SDS011;7459;53.590;10.062;2023-02-18T05:20:31;6.35;;;1.20;;
14736;SDS011;7459;53.590;10.062;2023-02-18T05:22:57;10.60;;;1.08;;
14736;SDS011;7459;53.590;10.062;2023-02-18T05:25:23;11.45;;;1.50;;
14736;SDS011;7459;53.590;10.062;2023-02-18T05:27:49;6.03;;;0.77;;
14736;SDS011;7459;53.590;10.062;2023-02-18T05:30:15;4.72;;;0.93;;
14736;SDS011;7459;53.590;10.062;2023-02-18T05:32:41;10.93;;;1.20;;
14736;SDS011;7459;53.590;10.062;2023-02-18T05:35:07;8.43;;;1.65;;
14736;SDS011;7459;53.590;10.062;2023-02-18T05:37:33;9.77;;;1.52;;
14736;SDS011;7459;53.590;10.062;2023-02-18T05:39:59;10.35;;;0.93;;
14736;SDS011;7459;53.590;10.062;2023-02-18T05:42:25;8.73;;;1.23;;
14736;SDS011;7459;53.590;10.062;2023-02-18T05:44:51;11.02;;;0.95;;
14736;SDS011;7459;53.590;10.062;2023-02-18T05:47:16;4.72;;;1.45;;
14736;SDS011;7459;53.590;10.062;2023-02-18T05:49:42;6.50;;;0.63;;
14736;SDS011;7459;53.590;10.062;2023-02-18T05:52:08;11.38;;;1.30;;
14736;SDS011;7459;53.590;10.062;2023-02-18T05:54:35;9.80;;;2.17;;
14736;SDS011;7459;53.590;10.062;2023-02-18T05:57:02;7.88;;;1.15;;
14736;SDS011;7459;53.590;10.062;2023-02-18T05:59:28;11.35;;;0.88;;
14736;SDS011;7459;53.590;10.062;2023-02-18T06:01:54;7.90;;;0.93;;
14736;SDS011;7459;53.590;10.062;2023-02-18T06:04:19;10.57;;;1.88;;
14736;SDS011;7459;53.590;10.062;2023-02-18T06:06:45;9.67;;;1.10;;
14736;SDS011;7459;53.590;10.062;2023-02-18T06:09:11;7.57;;;1.20;;
14736;SDS011;7459;53.590;10.062;2023-02-18T06:11:37;7.10;;;1.20;;
14736;SDS011;7459;53.590;10.062;2023-02-18T06:14:03;11.88;;;1.52;;
14736;SDS011;7459;53.590;10.062;2023-02-18T06:16:29;5.72;;;0.80;;
14736;SDS011;7459;53.590;10.062;2023-02-18T06:18:56;6.22;;;1.38;;
14736;SDS011;7459;53.590;10.062;2023-02-18T06:21:22;13.00;;;1.30;;
14736;SDS011;7459;53.590;10.062;2023-02-18T06:23:48;8.93;;;1.05;;
14736;SDS011;7459;53.590;10.062;2023-02-18T06:26:14;9.90;;;1.00;;
14736;SDS011;7459;53.590;10.062;2023-02-18T06:28:39;9.87;;;1.27;;
14736;SDS011;7459;53.590;10.062;2023-02-18T06:31:05;9.38;;;1.17;;
14736;SDS011;7459;53.590;10.062;2023-02-18T06:33:31;9.30;;;0.60;;
14736;SDS011;7459;53.590;10.062;2023-02-18T06:35:58;7.82;;;0.95;;
14736;SDS011;7459;53.590;10.062;2023-02-18T06:38:32;9.80;;;0.93;;
14736;SDS011;7459;53.590;10.062;2023-02-18T06:40:59;8.13;;;1.03;;
14736;SDS011;7459;53.590;10.062;2023-02-18T06:43:24;5.97;;;0.98;;
14736;SDS011;7459;53.590;10.062;2023-02-18T06:45:53;5.80;;;0.70;;
14736;SDS011;7459;53.590;10.062;2023-02-18T06:48:29;7.65;;;0.60;;
14736;SDS011;7459;53.590;10.062;2023-02-18T06:50:56;7.47;;;0.63;;
14736;SDS011;7459;53.590;10.062;2023-02-18T06:53:21;3.20;;;0.50;;
14736;SDS011;7459;53.590;10.062;2023-02-18T06:55:47;5.70;;;1.05;;
14736;SDS011;7459;53.590;10.062;2023-02-18T06:58:13;4.95;;;1.00;;
14736;SDS011;7459;53.590;10.062;2023-02-18T07:00:39;8.60;;;0.98;;
14736;SDS011;7459;53.590;10.062;2023-02-18T07:03:05;7.88;;;0.65;;
14736;SDS011;7459;53.590;10.062;2023-02-18T07:05:32;6.60;;;1.10;;
14736;SDS011;7459;53.590;10.062;2023-02-18T07:07:58;5.68;;;0.60;;
14736;SDS011;7459;53.590;10.062;2023-02-18T07:10:23;4.37;;;0.80;;
14736;SDS011;7459;53.590;10.062;2023-02-18T07:12:49;6.85;;;0.98;;
14736;SDS011;7459;53.590;10.062;2023-02-18T07:15:15;5.63;;;1.03;;
14736;SDS011;7459;53.590;10.062;2023-02-18T07:17:41;6.85;;;0.85;;
14736;SDS011;7459;53.590;10.062;2023-02-18T07:20:07;5.87;;;1.00;;
14736;SDS011;7459;53.590;10.062;2023-02-18T07:22:33;3.60;;;0.77;;
14736;SDS011;7459;53.590;10.062;2023-02-18T07:24:59;6.65;;;1.08;;
14736;SDS011;7459;53.590;10.062;2023-02-18T07:27:25;10.70;;;1.20;;
14736;SDS011;7459;53.590;10.062;2023-02-18T07:29:51;7.50;;;0.88;;
14736;SDS011;7459;53.590;10.062;2023-02-18T07:32:18;8.85;;;1.23;;
14736;SDS011;7459;53.590;10.062;2023-02-18T07:34:44;7.47;;;0.88;;
14736;SDS011;7459;53.590;10.062;2023-02-18T07:37:10;9.82;;;1.02;;
14736;SDS011;7459;53.590;10.062;2023-02-18T07:39:42;9.60;;;1.20;;
14736;SDS011;7459;53.590;10.062;2023-02-18T07:42:09;3.97;;;0.73;;
14736;SDS011;7459;53.590;10.062;2023-02-18T07:44:36;5.50;;;0.55;;
14736;SDS011;7459;53.590;10.062;2023-02-18T07:47:03;7.40;;;0.80;;
14736;SDS011;7459;53.590;10.062;2023-02-18T07:49:30;10.35;;;1.02;;
14736;SDS011;7459;53.590;10.062;2023-02-18T07:51:57;7.82;;;0.60;;
14736;SDS011;7459;53.590;10.062;2023-02-18T07:54:22;5.03;;;0.55;;
14736;SDS011;7459;53.590;10.062;2023-02-18T07:56:49;9.27;;;1.10;;
14736;SDS011;7459;53.590;10.062;2023-02-18T07:59:15;8.87;;;1.07;;
14736;SDS011;7459;53.590;10.062;2023-02-18T08:01:42;4.75;;;0.95;;
14736;SDS011;7459;53.590;10.062;2023-02-18T08:04:08;12.48;;;1.42;;
14736;SDS011;7459;53.590;10.062;2023-02-18T08:06:38;11.27;;;1.60;;
14736;SDS011;7459;53.590;10.062;2023-02-18T08:09:07;10.43;;;1.92;;
14736;SDS011;7459;53.590;10.062;2023-02-18T08:11:33;9.05;;;1.27;;
14736;SDS011;7459;53.590;10.062;2023-02-18T08:13:59;7.35;;;1.02;;
14736;SDS011;7459;53.590;10.062;2023-02-18T08:16:25;12.07;;;1.43;;
14736;SDS011;7459;53.590;10.062;2023-02-18T08:18:51;11.45;;;1.90;;
14736;SDS011;7459;53.590;10.062;2023-02-18T08:21:18;12.13;;;1.40;;
14736;SDS011;7459;53.590;10.062;2023-02-18T08:23:46;10.68;;;1.10;;
14736;SDS011;7459;53.590;10.062;2023-02-18T08:26:12;7.27;;;1.13;;
14736;SDS011;7459;53.590;10.062;2023-02-18T08:28:39;5.72;;;1.08;;
14736;SDS011;7459;53.590;10.062;2023-02-18T08:31:04;7.25;;;1.13;;
14736;SDS011;7459;53.590;10.062;2023-02-18T08:33:30;5.90;;;1.30;;
14736;SDS011;7459;53.590;10.062;2023-02-18T08:35:56;6.93;;;2.45;;
14736;SDS011;7459;53.590;10.062;2023-02-18T08:38:23;13.93;;;1.73;;
14736;SDS011;7459;53.590;10.062;2023-02-18T08:40:49;8.63;;;1.45;;
14736;SDS011;7459;53.590;10.062;2023-02-18T08:43:16;11.40;;;1.60;;
14736;SDS011;7459;53.590;10.062;2023-02-18T08:45:42;7.95;;;1.35;;
14736;SDS011;7459;53.590;10.062;2023-02-18T08:48:09;9.38;;;1.67;;
14736;SDS011;7459;53.590;10.062;2023-02-18T08:50:37;8.65;;;1.42;;
14736;SDS011;7459;53.590;10.062;2023-02-18T08:53:03;8.03;;;1.67;;
14736;SDS011;7459;53.590;10.062;2023-02-18T08:55:30;10.60;;;2.30;;
14736;SDS011;7459;53.590;10.062;2023-02-18T08:57:57;8.95;;;1.77;;
14736;SDS011;7459;53.590;10.062;2023-02-18T09:00:23;6.40;;;1.20;;
14736;SDS011;7459;53.590;10.062;2023-02-18T09:02:49;5.55;;;1.52;;
14736;SDS011;7459;53.590;10.062;2023-02-18T09:05:14;8.55;;;1.52;;
14736;SDS011;7459;53.590;10.062;2023-02-18T09:07:40;8.10;;;1.23;;
14736;SDS011;7459;53.590;10.062;2023-02-18T09:10:07;7.57;;;1.15;;
14736;SDS011;7459;53.590;10.062;2023-02-18T09:12:34;6.38;;;1.38;;
14736;SDS011;7459;53.590;10.062;2023-02-18T09:15:00;9.95;;;1.75;;
14736;SDS011;7459;53.590;10.062;2023-02-18T09:17:26;6.03;;;1.60;;
14736;SDS011;7459;53.590;10.062;2023-02-18T09:19:52;9.65;;;2.17;;
14736;SDS011;7459;53.590;10.062;2023-02-18T09:22:18;8.50;;;1.30;;
14736;SDS011;7459;53.590;10.062;2023-02-18T09:24:44;10.43;;;1.73;;
14736;SDS011;7459;53.590;10.062;2023-02-18T09:27:10;6.65;;;1.75;;
14736;SDS011;7459;53.590;10.062;2023-02-18T09:29:37;10.10;;;2.50;;
14736;SDS011;7459;53.590;10.062;2023-02-18T09:32:04;9.95;;;2.47;;
14736;SDS011;7459;53.590;10.062;2023-02-18T09:34:31;11.20;;;2.67;;
14736;SDS011;7459;53.590;10.062;2023-02-18T09:36:57;9.15;;;2.58;;
14736;SDS011;7459;53.590;10.062;2023-02-18T09:39:22;11.70;;;3.20;;
14736;SDS011;7459;53.590;10.062;2023-02-18T09:41:49;13.65;;;2.70;;
14736;SDS011;7459;53.590;10.062;2023-02-18T09:46:58;11.02;;;4.05;;
14736;SDS011;7459;53.590;10.062;2023-02-18T09:49:43;8.32;;;3.95;;
14736;SDS011;7459;53.590;10.062;2023-02-18T09:52:18;13.30;;;4.28;;
14736;SDS011;7459;53.590;10.062;2023-02-18T09:55:05;11.80;;;4.75;;
14736;SDS011;7459;53.590;10.062;2023-02-18T09:57:47;11.07;;;4.80;;
14736;SDS011;7459;53.590;10.062;2023-02-18T10:00:24;12.13;;;4.80;;
14736;SDS011;7459;53.590;10.062;2023-02-18T10:03:15;10.43;;;4.53;;
14736;SDS011;7459;53.590;10.062;2023-02-18T10:05:53;12.80;;;5.30;;
14736;SDS011;7459;53.590;10.062;2023-02-18T10:08:35;11.65;;;5.07;;
14736;SDS011;7459;53.590;10.062;2023-02-18T10:11:09;12.90;;;5.40;;
14736;SDS011;7459;53.590;10.062;2023-02-18T10:13:42;10.73;;;5.00;;
14736;SDS011;7459;53.590;10.062;2023-02-18T10:16:08;12.38;;;5.50;;
14736;SDS011;7459;53.590;10.062;2023-02-18T10:18:41;9.18;;;4.97;;
14736;SDS011;7459;53.590;10.062;2023-02-18T10:21:26;11.00;;;5.32;;
14736;SDS011;7459;53.590;10.062;2023-02-18T10:23:58;11.50;;;5.28;;
14736;SDS011;7459;53.590;10.062;2023-02-18T10:26:30;11.18;;;5.15;;
14736;SDS011;7459;53.590;10.062;2023-02-18T10:28:59;9.23;;;4.68;;
14736;SDS011;7459;53.590;10.062;2023-02-18T10:31:30;12.18;;;6.00;;
14736;SDS011;7459;53.590;10.062;2023-02-18T10:34:06;12.70;;;5.78;;
14736;SDS011;7459;53.590;10.062;2023-02-18T10:36:55;14.87;;;5.53;;
14736;SDS011;7459;53.590;10.062;2023-02-18T10:39:42;14.10;;;6.03;;
14736;SDS011;7459;53.590;10.062;2023-02-18T10:51:18;11.30;;;5.93;;
14736;SDS011;7459;53.590;10.062;2023-02-18T10:53:48;12.05;;;5.57;;
14736;SDS011;7459;53.590;10.062;2023-02-18T10:59:23;10.63;;;5.60;;
14736;SDS011;7459;53.590;10.062;2023-02-18T11:01:55;11.88;;;5.75;;
14736;SDS011;7459;53.590;10.062;2023-02-18T11:04:32;12.60;;;6.13;;
14736;SDS011;7459;53.590;10.062;2023-02-18T11:07:04;11.93;;;6.07;;
14736;SDS011;7459;53.590;10.062;2023-02-18T11:09:47;11.13;;;5.60;;
14736;SDS011;7459;53.590;10.062;2023-02-18T11:15:14;12.90;;;5.82;;
14736;SDS011;7459;53.590;10.062;2023-02-18T11:17:49;11.47;;;5.60;;
14736;SDS011;7459;53.590;10.062;2023-02-18T11:20:25;11.23;;;5.63;;
14736;SDS011;7459;53.590;10.062;2023-02-18T11:25:33;11.13;;;5.53;;
14736;SDS011;7459;53.590;10.062;2023-02-18T11:30:42;10.27;;;5.73;;
14736;SDS011;7459;53.590;10.062;2023-02-18T11:33:20;13.85;;;6.35;;
14736;SDS011;7459;53.590;10.062;2023-02-18T11:35:57;12.30;;;6.63;;
14736;SDS011;7459;53.590;10.062;2023-02-18T11:38:33;10.82;;;5.60;;
14736;SDS011;7459;53.590;10.062;2023-02-18T11:41:06;12.50;;;6.07;;
14736;SDS011;7459;53.590;10.062;2023-02-18T11:43:40;12.50;;;5.87;;
14736;SDS011;7459;53.590;10.062;2023-02-18T11:46:10;11.13;;;5.13;;
14736;SDS011;7459;53.590;10.062;2023-02-18T11:48:46;11.10;;;4.60;;
14736;SDS011;7459;53.590;10.062;2023-02-18T11:51:22;10.30;;;4.70;;
14736;SDS011;7459;53.590;10.062;2023-02-18T11:54:01;8.85;;;4.45;;
14736;SDS011;7459;53.590;10.062;2023-02-18T11:56:34;8.00;;;3.73;;
14736;SDS011;7459;53.590;10.062;2023-02-18T11:59:01;7.75;;;3.33;;
14736;SDS011;7459;53.590;10.062;2023-02-18T12:04:20;4.60;;;1.92;;
14736;SDS011;7459;53.590;10.062;2023-02-18T12:07:10;3.50;;;1.30;;
14736;SDS011;7459;53.590;10.062;2023-02-18T12:09:50;1.57;;;0.30;;
14736;SDS011;7459;53.590;10.062;2023-02-18T12:12:24;0.88;;;0.30;;
14736;SDS011;7459;53.590;10.062;2023-02-18T12:14:54;2.30;;;0.35;;
14736;SDS011;7459;53.590;10.062;2023-02-18T12:20:26;1.98;;;0.30;;
14736;SDS011;7459;53.590;10.062;2023-02-18T12:23:29;1.07;;;0.20;;
14736;SDS011;7459;53.590;10.062;2023-02-18T12:26:18;1.73;;;0.43;;
14736;SDS011;7459;53.590;10.062;2023-02-18T12:29:16;1.83;;;0.40;;
14736;SDS011;7459;53.590;10.062;2023-02-18T12:32:18;1.15;;;0.30;;
14736;SDS011;7459;53.590;10.062;2023-02-18T12:41:29;3.83;;;0.68;;
14736;SDS011;7459;53.590;10.062;2023-02-18T12:50:02;5.30;;;1.23;;
14736;SDS011;7459;53.590;10.062;2023-02-18T12:55:49;8.57;;;1.40;;
14736;SDS011;7459;53.590;10.062;2023-02-18T13:01:42;6.80;;;1.33;;
14736;SDS011;7459;53.590;10.062;2023-02-18T13:04:51;5.25;;;1.17;;
14736;SDS011;7459;53.590;10.062;2023-02-18T13:16:35;7.80;;;1.40;;
14736;SDS011;7459;53.590;10.062;2023-02-18T13:19:22;7.75;;;1.95;;
14736;SDS011;7459;53.590;10.062;2023-02-18T13:21:57;7.27;;;1.50;;
14736;SDS011;7459;53.590;10.062;2023-02-18T13:24:35;9.63;;;1.42;;
14736;SDS011;7459;53.590;10.062;2023-02-18T13:33:05;7.78;;;1.80;;
14736;SDS011;7459;53.590;10.062;2023-02-18T13:41:20;13.30;;;1.65;;
14736;SDS011;7459;53.590;10.062;2023-02-18T13:43:46;7.78;;;1.30;;
14736;SDS011;7459;53.590;10.062;2023-02-18T13:46:13;6.27;;;1.20;;
14736;SDS011;7459;53.590;10.062;2023-02-18T13:56:38;7.50;;;1.98;;
14736;SDS011;7459;53.590;10.062;2023-02-18T13:59:16;8.13;;;2.43;;
14736;SDS011;7459;53.590;10.062;2023-02-18T14:01:48;15.18;;;1.50;;
14736;SDS011;7459;53.590;10.062;2023-02-18T14:25:53;3.70;;;1.30;;
14736;SDS011;7459;53.590;10.062;2023-02-18T14:33:39;3.75;;;0.90;;
14736;SDS011;7459;53.590;10.062;2023-02-18T14:39:26;2.77;;;1.10;;
14736;SDS011;7459;53.590;10.062;2023-02-18T14:45:32;3.95;;;1.33;;
14736;SDS011;7459;53.590;10.062;2023-02-18T14:48:30;3.97;;;1.13;;
14736;SDS011;7459;53.590;10.062;2023-02-18T14:51:06;3.55;;;1.65;;
14736;SDS011;7459;53.590;10.062;2023-02-18T14:53:33;2.83;;;1.17;;
14736;SDS011;7459;53.590;10.062;2023-02-18T14:56:07;2.92;;;1.20;;
14736;SDS011;7459;53.590;10.062;2023-02-18T14:58:38;4.13;;;1.40;;
14736;SDS011;7459;53.590;10.062;2023-02-18T15:01:18;3.25;;;1.50;;
14736;SDS011;7459;53.590;10.062;2023-02-18T15:03:53;3.30;;;1.40;;
14736;SDS011;7459;53.590;10.062;2023-02-18T15:06:36;2.90;;;1.03;;
14736;SDS011;7459;53.590;10.062;2023-02-18T15:09:11;2.53;;;1.10;;
14736;SDS011;7459;53.590;10.062;2023-02-18T15:12:02;2.72;;;1.10;;
14736;SDS011;7459;53.590;10.062;2023-02-18T15:14:31;2.78;;;1.05;;
14736;SDS011;7459;53.590;10.062;2023-02-18T15:17:00;2.70;;;1.15;;
14736;SDS011;7459;53.590;10.062;2023-02-18T15:19:27;2.93;;;1.20;;
14736;SDS011;7459;53.590;10.062;2023-02-18T15:22:01;4.22;;;1.50;;
14736;SDS011;7459;53.590;10.062;2023-02-18T15:24:31;4.38;;;1.70;;
14736;SDS011;7459;53.590;10.062;2023-02-18T15:27:01;5.10;;;1.45;;
14736;SDS011;7459;53.590;10.062;2023-02-18T15:29:35;3.50;;;1.48;;
14736;SDS011;7459;53.590;10.062;2023-02-18T15:32:09;2.75;;;1.10;;
14736;SDS011;7459;53.590;10.062;2023-02-18T15:34:50;3.22;;;1.52;;
14736;SDS011;7459;53.590;10.062;2023-02-18T15:37:18;3.40;;;1.20;;
14736;SDS011;7459;53.590;10.062;2023-02-18T15:39:44;3.00;;;1.03;;
14736;SDS011;7459;53.590;10.062;2023-02-18T15:42:16;3.47;;;0.98;;
14736;SDS011;7459;53.590;10.062;2023-02-18T15:47:30;2.42;;;0.90;;
14736;SDS011;7459;53.590;10.062;2023-02-18T15:49:57;3.90;;;0.93;;
14736;SDS011;7459;53.590;10.062;2023-02-18T15:52:26;1.77;;;0.30;;
14736;SDS011;7459;53.590;10.062;2023-02-18T15:54:55;1.80;;;0.60;;
14736;SDS011;7459;53.590;10.062;2023-02-18T15:57:28;1.95;;;0.55;;
14736;SDS011;7459;53.590;10.062;2023-02-18T16:00:56;2.28;;;0.43;;
14736;SDS011;7459;53.590;10.062;2023-02-18T16:03:11;1.95;;;0.70;;
14736;SDS011;7459;53.590;10.062;2023-02-18T16:09:01;1.85;;;0.50;;
14736;SDS011;7459;53.590;10.062;2023-02-18T16:11:57;2.47;;;0.75;;
14736;SDS011;7459;53.590;10.062;2023-02-18T16:14:39;2.70;;;1.00;;
14736;SDS011;7459;53.590;10.062;2023-02-18T16:17:22;3.88;;;1.00;;
14736;SDS011;7459;53.590;10.062;2023-02-18T16:20:00;2.73;;;1.10;;
14736;SDS011;7459;53.590;10.062;2023-02-18T16:22:46;4.22;;;1.10;;
14736;SDS011;7459;53.590;10.062;2023-02-18T16:25:24;2.13;;;0.73;;
14736;SDS011;7459;53.590;10.062;2023-02-18T16:30:27;2.77;;;1.17;;
14736;SDS011;7459;53.590;10.062;2023-02-18T16:32:55;3.25;;;1.13;;
14736;SDS011;7459;53.590;10.062;2023-02-18T16:35:22;2.63;;;1.15;;
14736;SDS011;7459;53.590;10.062;2023-02-18T16:37:51;2.50;;;1.02;;
14736;SDS011;7459;53.590;10.062;2023-02-18T16:40:23;1.83;;;0.60;;
14736;SDS011;7459;53.590;10.062;2023-02-18T16:42:56;2.10;;;0.77;;
14736;SDS011;7459;53.590;10.062;2023-02-18T16:45:29;2.33;;;0.75;;
14736;SDS011;7459;53.590;10.062;2023-02-18T16:48:02;4.05;;;1.55;;
14736;SDS011;7459;53.590;10.062;2023-02-18T16:50:29;1.83;;;0.88;;
14736;SDS011;7459;53.590;10.062;2023-02-18T16:52:57;2.67;;;0.73;;
14736;SDS011;7459;53.590;10.062;2023-02-18T16:55:24;3.10;;;1.00;;
14736;SDS011;7459;53.590;10.062;2023-02-18T16:57:52;3.38;;;0.90;;
14736;SDS011;7459;53.590;10.062;2023-02-18T17:00:19;3.33;;;1.63;;
14736;SDS011;7459;53.590;10.062;2023-02-18T17:02:46;2.83;;;1.00;;
14736;SDS011;7459;53.590;10.062;2023-02-18T17:05:19;2.53;;;1.10;;
14736;SDS011;7459;53.590;10.062;2023-02-18T17:07:51;2.40;;;0.95;;
14736;SDS011;7459;53.590;10.062;2023-02-18T17:10:17;2.58;;;1.00;;
14736;SDS011;7459;53.590;10.062;2023-02-18T17:12:43;2.77;;;1.20;;
14736;SDS011;7459;53.590;10.062;2023-02-18T17:15:12;4.07;;;1.40;;
14736;SDS011;7459;53.590;10.062;2023-02-18T17:17:50;3.42;;;1.50;;
14736;SDS011;7459;53.590;10.062;2023-02-18T17:20:16;3.47;;;1.67;;
14736;SDS011;7459;53.590;10.062;2023-02-18T17:22:42;4.60;;;1.52;;
14736;SDS011;7459;53.590;10.062;2023-02-18T17:25:09;4.05;;;1.60;;
14736;SDS011;7459;53.590;10.062;2023-02-18T17:27:39;5.23;;;1.67;;